createdAt,value
2023-04-11T00:00:03.656Z,14.48
2023-04-11T00:01:03.620Z,14.46
2023-04-11T00:02:03.664Z,14.40
2023-04-11T00:03:03.864Z,14.40
2023-04-11T00:04:03.684Z,14.36
2023-04-11T00:05:03.693Z,14.44
2023-04-11T00:06:03.583Z,14.45
2023-04-11T00:07:03.557Z,14.40
2023-04-11T00:08:03.571Z,14.44
2023-04-11T00:09:03.531Z,14.34
2023-04-11T00:10:03.534Z,14.30
2023-04-11T00:11:03.525Z,14.36
2023-04-11T00:12:03.504Z,14.34
2023-04-11T00:13:03.510Z,14.34
2023-04-11T00:14:03.473Z,14.34
2023-04-11T00:15:03.464Z,14.30
2023-04-11T00:16:03.672Z,14.27
2023-04-11T00:17:03.469Z,14.37
2023-04-11T00:18:03.507Z,14.31
2023-04-11T00:19:03.431Z,14.28
2023-04-11T00:20:03.419Z,14.31
2023-04-11T00:21:03.398Z,14.30
2023-04-11T00:22:03.410Z,14.30
2023-04-11T00:23:03.383Z,14.30
2023-04-11T00:24:03.406Z,14.27
2023-04-11T00:25:03.368Z,14.26
2023-04-11T00:26:03.367Z,14.26
2023-04-11T00:27:03.371Z,14.19
2023-04-11T00:28:03.371Z,14.26
2023-04-11T00:29:03.311Z,14.19
2023-04-11T00:30:03.307Z,14.12
2023-04-11T00:31:03.293Z,14.22
2023-04-11T00:32:03.463Z,14.27
2023-04-11T00:33:03.317Z,14.12
2023-04-11T00:34:03.259Z,14.23
2023-04-11T00:35:03.261Z,14.21
2023-04-11T00:36:03.291Z,14.15
2023-04-11T00:37:03.286Z,14.23
2023-04-11T00:38:03.241Z,14.15
2023-04-11T00:39:03.195Z,14.16
2023-04-11T00:40:03.196Z,14.15
2023-04-11T00:41:03.181Z,14.18
2023-04-11T00:42:03.196Z,14.12
2023-04-11T00:43:03.187Z,14.18
2023-04-11T00:44:03.157Z,14.09
2023-04-11T00:45:03.128Z,14.13
2023-04-11T00:46:03.189Z,14.05
2023-04-11T00:47:03.111Z,14.11
2023-04-11T00:48:03.229Z,14.13
2023-04-11T00:49:03.086Z,14.04
2023-04-11T00:50:03.082Z,14.09
2023-04-11T00:51:03.084Z,14.04
2023-04-11T00:52:03.084Z,14.04
2023-04-11T00:53:03.045Z,14.12
2023-04-11T00:54:03.037Z,14.01
2023-04-11T00:55:03.025Z,14.05
2023-04-11T00:56:03.067Z,14.01
2023-04-11T00:57:03.000Z,14.01
2023-04-11T00:58:02.987Z,14.04
2023-04-11T00:59:02.974Z,14.05
2023-04-11T01:00:02.992Z,14.03
2023-04-11T01:01:02.988Z,14.01
2023-04-11T01:02:03.022Z,13.97
2023-04-11T01:03:03.207Z,13.94
2023-04-11T01:04:03.044Z,13.91
2023-04-11T01:05:02.925Z,14.03
2023-04-11T01:06:02.924Z,13.98
2023-04-11T01:07:02.899Z,13.98
2023-04-11T01:08:02.888Z,13.96
2023-04-11T01:09:02.870Z,14.03
2023-04-11T01:10:02.870Z,14.01
2023-04-11T01:11:02.881Z,13.98
2023-04-11T01:12:02.870Z,13.91
2023-04-11T01:13:02.828Z,13.88
2023-04-11T01:14:02.827Z,13.90
2023-04-11T01:15:02.809Z,13.90
2023-04-11T01:16:02.827Z,13.94
2023-04-11T01:17:02.920Z,13.88
2023-04-11T01:18:02.856Z,13.94
2023-04-11T01:19:02.764Z,13.86
2023-04-11T01:20:02.773Z,13.86
2023-04-11T01:21:02.766Z,13.88
2023-04-11T01:22:02.821Z,13.90
2023-04-11T01:23:02.721Z,13.83
2023-04-11T01:24:02.710Z,13.83
2023-04-11T01:25:02.740Z,13.80
2023-04-11T01:26:02.712Z,13.82
2023-04-11T01:27:02.673Z,13.82
2023-04-11T01:28:02.677Z,13.83
2023-04-11T01:29:02.656Z,13.83
2023-04-11T01:30:02.650Z,13.82
2023-04-11T01:31:02.722Z,13.79
2023-04-11T01:32:02.644Z,13.78
2023-04-11T01:33:02.638Z,13.82
2023-04-11T01:34:02.598Z,13.76
2023-04-11T01:35:02.592Z,13.76
2023-04-11T01:36:02.775Z,13.79
2023-04-11T01:37:02.600Z,13.76
2023-04-11T01:38:02.556Z,13.79
2023-04-11T01:39:02.545Z,13.76
2023-04-11T01:40:02.535Z,13.73
2023-04-11T01:41:02.524Z,13.79
2023-04-11T01:42:02.533Z,13.71
2023-04-11T01:43:02.494Z,13.71
2023-04-11T01:44:02.480Z,13.65
2023-04-11T01:45:02.468Z,13.72
2023-04-11T01:46:02.466Z,13.71
2023-04-11T01:47:02.490Z,13.73
2023-04-11T01:48:02.555Z,13.64
2023-04-11T01:49:02.454Z,13.67
2023-04-11T01:50:02.417Z,13.67
2023-04-11T01:51:02.401Z,13.73
2023-04-11T01:52:02.463Z,13.73
2023-04-11T01:53:02.409Z,13.71
2023-04-11T01:54:02.400Z,13.67
2023-04-11T01:55:02.357Z,13.67
2023-04-11T01:56:02.358Z,13.68
2023-04-11T01:57:02.349Z,13.68
2023-04-11T01:58:02.382Z,13.65
2023-04-11T01:59:02.339Z,13.68
2023-04-11T02:00:02.333Z,13.67
2023-04-11T02:01:02.348Z,13.64
2023-04-11T02:02:02.373Z,13.63
2023-04-11T02:03:02.413Z,13.67
2023-04-11T02:04:02.324Z,13.61
2023-04-11T02:05:02.245Z,13.64
2023-04-11T02:06:02.274Z,13.60
2023-04-11T02:07:02.223Z,13.61
2023-04-11T02:08:02.250Z,13.63
2023-04-11T02:09:02.205Z,13.63
2023-04-11T02:10:02.220Z,13.60
2023-04-11T02:11:02.202Z,13.60
2023-04-11T02:12:02.176Z,13.58
2023-04-11T02:13:02.161Z,13.57
2023-04-11T02:14:02.290Z,13.57
2023-04-11T02:15:02.170Z,13.55
2023-04-11T02:16:02.197Z,13.60
2023-04-11T02:17:02.157Z,13.61
2023-04-11T02:18:02.159Z,13.53
2023-04-11T02:19:02.093Z,13.49
2023-04-11T02:20:02.115Z,13.54
2023-04-11T02:21:02.075Z,13.61
2023-04-11T02:22:02.142Z,13.49
2023-04-11T02:23:02.047Z,13.54
2023-04-11T02:24:02.068Z,13.53
2023-04-11T02:25:02.031Z,13.49
2023-04-11T02:26:02.044Z,13.57
2023-04-11T02:27:02.029Z,13.53
2023-04-11T02:28:02.091Z,13.58
2023-04-11T02:29:02.004Z,13.55
2023-04-11T02:30:02.045Z,13.46
2023-04-11T02:31:02.103Z,13.46
2023-04-11T02:32:02.090Z,13.49
2023-04-11T02:33:02.109Z,13.54
2023-04-11T02:34:01.980Z,13.51
2023-04-11T02:35:01.914Z,13.53
2023-04-11T02:36:02.066Z,13.53
2023-04-11T02:37:01.931Z,13.38
2023-04-11T02:38:01.897Z,13.54
2023-04-11T02:39:01.873Z,13.40
2023-04-11T02:40:01.885Z,13.42
2023-04-11T02:41:01.880Z,13.42
2023-04-11T02:42:01.870Z,13.40
2023-04-11T02:43:01.892Z,13.45
2023-04-11T02:44:01.833Z,13.47
2023-04-11T02:45:01.811Z,13.40
2023-04-11T02:46:11.712Z,13.42
2023-04-11T02:47:02.881Z,13.40
2023-04-11T02:48:01.841Z,13.40
2023-04-11T02:49:01.796Z,13.40
2023-04-11T02:50:01.802Z,13.38
2023-04-11T02:51:01.743Z,13.40
2023-04-11T02:52:01.760Z,13.32
2023-04-11T02:53:01.720Z,13.32
2023-04-11T02:54:01.727Z,13.30
2023-04-11T02:55:01.764Z,13.36
2023-04-11T02:56:01.713Z,13.40
2023-04-11T02:57:01.672Z,13.42
2023-04-11T02:58:01.673Z,13.40
2023-04-11T02:59:01.696Z,13.29
2023-04-11T03:00:01.673Z,13.39
2023-04-11T03:01:01.645Z,13.38
2023-04-11T03:02:01.793Z,13.24
2023-04-11T03:03:01.673Z,13.30
2023-04-11T03:04:01.797Z,13.26
2023-04-11T03:05:01.640Z,13.27
2023-04-11T03:06:01.592Z,13.29
2023-04-11T03:07:01.568Z,13.27
2023-04-11T03:08:01.578Z,13.26
2023-04-11T03:09:01.543Z,13.26
2023-04-11T03:10:01.531Z,13.38
2023-04-11T03:11:01.599Z,13.19
2023-04-11T03:12:01.534Z,13.23
2023-04-11T03:13:01.550Z,13.19
2023-04-11T03:14:01.516Z,13.17
2023-04-11T03:15:01.483Z,13.19
2023-04-11T03:16:01.615Z,13.27
2023-04-11T03:17:01.519Z,13.24
2023-04-11T03:18:01.497Z,13.30
2023-04-11T03:19:01.441Z,13.27
2023-04-11T03:20:01.427Z,13.21
2023-04-11T03:21:01.485Z,13.19
2023-04-11T03:22:01.434Z,13.35
2023-04-11T03:23:01.402Z,13.16
2023-04-11T03:24:01.382Z,13.24
2023-04-11T03:25:01.369Z,13.16
2023-04-11T03:26:01.392Z,13.19
2023-04-11T03:27:01.353Z,13.16
2023-04-11T03:28:01.397Z,13.23
2023-04-11T03:29:01.337Z,13.14
2023-04-11T03:30:01.410Z,13.14
2023-04-11T03:31:01.333Z,13.23
2023-04-11T03:32:01.351Z,13.29
2023-04-11T03:33:01.402Z,13.17
2023-04-11T03:34:01.283Z,13.17
2023-04-11T03:35:01.262Z,13.17
2023-04-11T03:36:01.330Z,13.17
2023-04-11T03:37:01.260Z,13.08
2023-04-11T03:38:01.226Z,13.17
2023-04-11T03:39:01.241Z,13.13
2023-04-11T03:40:01.236Z,13.13
2023-04-11T03:41:01.223Z,13.13
2023-04-11T03:42:01.205Z,13.05
2023-04-11T03:43:02.980Z,13.02
2023-04-11T03:44:01.190Z,13.17
2023-04-11T03:45:01.183Z,13.11
2023-04-11T03:46:01.163Z,13.17
2023-04-11T03:47:01.379Z,13.06
2023-04-11T03:48:01.195Z,13.16
2023-04-11T03:49:01.155Z,13.21
2023-04-11T03:50:01.116Z,13.16
2023-04-11T03:51:01.123Z,13.11
2023-04-11T03:52:01.089Z,13.09
2023-04-11T03:53:01.074Z,13.04
2023-04-11T03:54:01.076Z,13.08
2023-04-11T03:55:01.045Z,13.09
2023-04-11T03:56:01.032Z,13.14
2023-04-11T03:57:01.041Z,13.11
2023-04-11T03:58:01.016Z,13.05
2023-04-11T03:59:01.005Z,13.14
2023-04-11T04:00:01.032Z,13.08
2023-04-11T04:01:00.982Z,13.14
2023-04-11T04:02:01.082Z,13.04
2023-04-11T04:03:01.180Z,13.06
2023-04-11T04:04:01.308Z,13.05
2023-04-11T04:05:00.980Z,13.08
2023-04-11T04:06:00.950Z,13.02
2023-04-11T04:07:00.916Z,13.11
2023-04-11T04:08:00.894Z,13.01
2023-04-11T04:09:00.913Z,12.96
2023-04-11T04:10:00.869Z,13.02
2023-04-11T04:11:00.898Z,12.98
2023-04-11T04:12:00.927Z,13.02
2023-04-11T04:13:00.853Z,12.99
2023-04-11T04:14:00.832Z,12.99
2023-04-11T04:15:00.844Z,12.96
2023-04-11T04:16:03.430Z,12.91
2023-04-11T04:17:00.870Z,12.95
2023-04-11T04:18:00.822Z,13.08
2023-04-11T04:19:00.783Z,13.01
2023-04-11T04:20:00.765Z,12.93
2023-04-11T04:21:00.762Z,12.99
2023-04-11T04:22:00.775Z,12.93
2023-04-11T04:23:00.760Z,12.90
2023-04-11T04:24:00.720Z,12.99
2023-04-11T04:25:00.724Z,12.87
2023-04-11T04:26:00.710Z,12.95
2023-04-11T04:27:00.696Z,12.93
2023-04-11T04:28:00.706Z,12.83
2023-04-11T04:29:00.738Z,12.95
2023-04-11T04:30:04.094Z,12.93
2023-04-11T04:31:00.647Z,12.91
2023-04-11T04:32:00.727Z,12.95
2023-04-11T04:33:00.738Z,12.95
2023-04-11T04:34:00.616Z,12.90
2023-04-11T04:35:00.605Z,12.95
2023-04-11T04:36:00.647Z,12.88
2023-04-11T04:37:00.586Z,12.83
2023-04-11T04:38:00.587Z,12.77
2023-04-11T04:39:00.565Z,12.88
2023-04-11T04:40:00.559Z,12.91
2023-04-11T04:41:00.556Z,12.90
2023-04-11T04:42:00.526Z,12.81
2023-04-11T04:43:00.537Z,12.79
2023-04-11T04:44:00.502Z,12.83
2023-04-11T04:45:00.511Z,12.79
2023-04-11T04:46:00.552Z,12.87
2023-04-11T04:47:00.629Z,12.76
2023-04-11T04:48:00.525Z,12.77
2023-04-11T04:49:02.213Z,12.80
2023-04-11T04:50:00.438Z,12.79
2023-04-11T04:51:00.452Z,12.81
2023-04-11T04:52:00.418Z,12.79
2023-04-11T04:53:00.426Z,12.79
2023-04-11T04:54:00.387Z,12.73
2023-04-11T04:55:00.596Z,12.73
2023-04-11T04:56:00.365Z,12.79
2023-04-11T04:57:00.364Z,12.68
2023-04-11T04:58:00.374Z,12.71
2023-04-11T04:59:00.343Z,12.77
2023-04-11T05:00:00.331Z,12.76
2023-04-11T05:01:00.381Z,12.69
2023-04-11T05:02:00.371Z,12.71
2023-04-11T05:03:00.582Z,12.66
2023-04-11T05:04:01.143Z,12.65
2023-04-11T05:05:00.272Z,12.62
2023-04-11T05:06:00.254Z,12.61
2023-04-11T05:07:00.245Z,12.73
2023-04-11T05:08:00.245Z,12.59
2023-04-11T05:09:00.259Z,12.62
2023-04-11T05:10:00.222Z,12.61
2023-04-11T05:11:00.214Z,12.61
2023-04-11T05:12:00.220Z,12.59
2023-04-11T05:13:00.194Z,12.66
2023-04-11T05:14:00.191Z,12.69
2023-04-11T05:15:00.180Z,12.62
2023-04-11T05:16:00.159Z,12.61
2023-04-11T05:17:00.405Z,12.58
2023-04-11T05:18:00.171Z,12.59
2023-04-11T05:19:00.123Z,12.54
2023-04-11T05:20:00.208Z,12.59
2023-04-11T05:21:00.119Z,12.59
2023-04-11T05:22:00.110Z,12.54
2023-04-11T05:23:00.133Z,12.54
2023-04-11T05:24:00.064Z,12.58
2023-04-11T05:25:00.059Z,12.53
2023-04-11T05:26:00.075Z,12.54
2023-04-11T05:27:00.042Z,12.54
2023-04-11T05:28:00.046Z,12.58
2023-04-11T05:29:00.025Z,12.51
2023-04-11T05:30:00.005Z,12.51
2023-04-11T05:31:00.051Z,12.54
2023-04-11T05:31:59.977Z,12.46
2023-04-11T05:33:00.037Z,12.48
2023-04-11T05:33:59.951Z,12.43
2023-04-11T05:34:59.954Z,12.50
2023-04-11T05:36:00.148Z,12.46
2023-04-11T05:36:59.933Z,12.46
2023-04-11T05:37:59.932Z,12.48
2023-04-11T05:38:59.902Z,12.50
2023-04-11T05:39:59.909Z,12.44
2023-04-11T05:40:59.884Z,12.48
2023-04-11T05:41:59.900Z,12.43
2023-04-11T05:42:59.878Z,12.47
2023-04-11T05:43:59.845Z,12.44
2023-04-11T05:44:59.839Z,12.48
2023-04-11T05:45:59.870Z,12.47
2023-04-11T05:46:59.828Z,12.46
2023-04-11T05:47:59.835Z,12.47
2023-04-11T05:48:59.794Z,12.38
2023-04-11T05:49:59.800Z,12.43
2023-04-11T05:50:59.823Z,12.44
2023-04-11T05:51:59.816Z,12.46
2023-04-11T05:52:59.770Z,12.43
2023-04-11T05:53:59.732Z,12.38
2023-04-11T05:54:59.733Z,12.36
2023-04-11T05:55:59.743Z,12.47
2023-04-11T05:56:59.737Z,12.38
2023-04-11T05:57:59.696Z,12.48
2023-04-11T05:58:59.691Z,12.33
2023-04-11T05:59:59.665Z,12.43
2023-04-11T06:00:59.672Z,12.33
2023-04-11T06:01:59.730Z,12.36
2023-04-11T06:02:59.726Z,12.33
2023-04-11T06:03:59.969Z,12.32
2023-04-11T06:04:59.661Z,12.33
2023-04-11T06:05:59.602Z,12.35
2023-04-11T06:06:59.618Z,12.33
2023-04-11T06:07:59.676Z,12.38
2023-04-11T06:08:59.569Z,12.26
2023-04-11T06:09:59.556Z,12.33
2023-04-11T06:10:59.549Z,12.35
2023-04-11T06:11:59.563Z,12.30
2023-04-11T06:12:59.550Z,12.38
2023-04-11T06:13:59.509Z,12.30
2023-04-11T06:14:59.503Z,12.36
2023-04-11T06:15:59.541Z,12.33
2023-04-11T06:16:59.517Z,12.38
2023-04-11T06:17:59.522Z,12.41
2023-04-11T06:18:59.453Z,12.30
2023-04-11T06:19:59.442Z,12.35
2023-04-11T06:20:59.437Z,12.41
2023-04-11T06:21:59.449Z,12.30
2023-04-11T06:22:59.419Z,12.33
2023-04-11T06:23:59.418Z,12.36
2023-04-11T06:24:59.414Z,12.35
2023-04-11T06:25:59.374Z,12.30
2023-04-11T06:26:59.413Z,12.33
2023-04-11T06:27:59.349Z,12.30
2023-04-11T06:28:59.350Z,12.36
2023-04-11T06:29:59.356Z,12.35
2023-04-11T06:30:59.338Z,12.30
2023-04-11T06:31:59.314Z,12.30
2023-04-11T06:32:59.370Z,12.30
2023-04-11T06:33:59.286Z,12.33
2023-04-11T06:34:59.278Z,12.32
2023-04-11T06:35:59.286Z,12.36
2023-04-11T06:36:59.262Z,12.36
2023-04-11T06:37:59.272Z,12.43
2023-04-11T06:38:59.248Z,12.32
2023-04-11T06:39:59.288Z,12.41
2023-04-11T06:40:59.230Z,12.40
2023-04-11T06:41:59.208Z,12.35
2023-04-11T06:42:59.197Z,12.35
2023-04-11T06:43:59.429Z,12.41
2023-04-11T06:44:59.196Z,12.44
2023-04-11T06:45:59.172Z,12.33
2023-04-11T06:46:59.373Z,12.38
2023-04-11T06:47:59.230Z,12.32
2023-04-11T06:48:59.129Z,12.41
2023-04-11T06:49:59.117Z,12.40
2023-04-11T06:50:59.111Z,12.44
2023-04-11T06:51:59.112Z,12.35
2023-04-11T06:52:59.113Z,12.46
2023-04-11T06:53:59.072Z,12.40
2023-04-11T06:54:59.065Z,12.40
2023-04-11T06:55:59.070Z,12.43
2023-04-11T06:56:59.040Z,12.36
2023-04-11T06:57:59.041Z,12.35
2023-04-11T06:58:59.020Z,12.38
2023-04-11T06:59:59.007Z,12.38
2023-04-11T07:00:59.009Z,12.44
2023-04-11T07:01:59.133Z,12.40
2023-04-11T07:02:59.142Z,12.41
2023-04-11T07:03:59.455Z,12.43
2023-04-11T07:04:58.981Z,12.44
2023-04-11T07:05:58.943Z,12.38
2023-04-11T07:06:58.937Z,12.33
2023-04-11T07:07:58.938Z,12.41
2023-04-11T07:08:58.912Z,12.40
2023-04-11T07:09:58.918Z,12.43
2023-04-11T07:10:58.892Z,12.46
2023-04-11T07:11:58.900Z,12.51
2023-04-11T07:12:58.893Z,12.41
2023-04-11T07:13:58.859Z,12.44
2023-04-11T07:14:58.860Z,12.48
2023-04-11T07:15:58.851Z,12.44
2023-04-11T07:16:58.815Z,12.46
2023-04-11T07:17:58.843Z,12.48
2023-04-11T07:18:58.798Z,12.50
2023-04-11T07:19:58.786Z,12.46
2023-04-11T07:20:58.801Z,12.44
2023-04-11T07:21:58.764Z,12.48
2023-04-11T07:22:58.775Z,12.47
2023-04-11T07:23:58.744Z,12.47
2023-04-11T07:24:58.770Z,12.50
2023-04-11T07:25:58.718Z,12.46
2023-04-11T07:26:58.723Z,12.44
2023-04-11T07:27:58.756Z,12.47
2023-04-11T07:28:58.696Z,12.51
2023-04-11T07:29:58.678Z,12.47
2023-04-11T07:30:58.696Z,12.51
2023-04-11T07:31:58.719Z,12.50
2023-04-11T07:32:58.694Z,12.50
2023-04-11T07:33:58.928Z,12.50
2023-04-11T07:34:58.630Z,12.51
2023-04-11T07:35:58.659Z,12.48
2023-04-11T07:36:58.611Z,12.54
2023-04-11T07:37:58.607Z,12.50
2023-04-11T07:38:58.584Z,12.50
2023-04-11T07:39:58.562Z,12.53
2023-04-11T07:40:58.593Z,12.46
2023-04-11T07:41:58.540Z,12.51
2023-04-11T07:42:58.533Z,12.53
2023-04-11T07:43:58.755Z,12.59
2023-04-11T07:44:58.513Z,12.59
2023-04-11T07:45:58.547Z,12.59
2023-04-11T07:46:58.522Z,12.59
2023-04-11T07:47:58.533Z,12.59
2023-04-11T07:48:58.467Z,12.55
2023-04-11T07:49:58.452Z,12.62
2023-04-11T07:50:58.448Z,12.55
2023-04-11T07:51:58.455Z,12.62
2023-04-11T07:52:58.451Z,12.66
2023-04-11T07:53:58.501Z,12.61
2023-04-11T07:54:58.404Z,12.59
2023-04-11T07:55:58.419Z,12.62
2023-04-11T07:56:58.408Z,12.68
2023-04-11T07:57:58.392Z,12.61
2023-04-11T07:58:58.408Z,12.54
2023-04-11T07:59:58.365Z,12.55
2023-04-11T08:00:58.352Z,12.71
2023-04-11T08:01:58.431Z,12.73
2023-04-11T08:02:58.527Z,12.61
2023-04-11T08:03:58.789Z,12.68
2023-04-11T08:04:58.454Z,12.72
2023-04-11T08:05:58.294Z,12.73
2023-04-11T08:06:58.278Z,12.69
2023-04-11T08:07:58.282Z,12.69
2023-04-11T08:08:58.247Z,12.62
2023-04-11T08:09:58.230Z,12.71
2023-04-11T08:10:58.231Z,12.68
2023-04-11T08:11:58.239Z,12.58
2023-04-11T08:12:58.195Z,12.69
2023-04-11T08:13:58.545Z,12.68
2023-04-11T08:14:58.186Z,12.62
2023-04-11T08:15:58.205Z,12.69
2023-04-11T08:16:58.229Z,12.71
2023-04-11T08:17:58.172Z,12.68
2023-04-11T08:18:58.143Z,12.68
2023-04-11T08:19:58.139Z,12.73
2023-04-11T08:20:58.113Z,12.63
2023-04-11T08:21:58.127Z,12.73
2023-04-11T08:22:58.098Z,12.71
2023-04-11T08:23:58.391Z,12.71
2023-04-11T08:24:58.069Z,12.73
2023-04-11T08:25:58.060Z,12.69
2023-04-11T08:26:58.070Z,12.71
2023-04-11T08:27:58.042Z,12.71
2023-04-11T08:28:58.051Z,12.66
2023-04-11T08:29:58.016Z,12.66
2023-04-11T08:30:58.058Z,12.66
2023-04-11T08:31:58.039Z,12.79
2023-04-11T08:32:58.058Z,12.72
2023-04-11T08:34:00.737Z,12.68
2023-04-11T08:34:57.958Z,12.72
2023-04-11T08:35:58.016Z,12.66
2023-04-11T08:36:57.941Z,12.63
2023-04-11T08:37:58.010Z,12.68
2023-04-11T08:38:57.936Z,12.73
2023-04-11T08:39:57.914Z,12.73
2023-04-11T08:40:57.894Z,12.68
2023-04-11T08:41:57.922Z,12.73
2023-04-11T08:42:57.878Z,12.71
2023-04-11T08:43:58.242Z,12.72
2023-04-11T08:44:57.849Z,12.68
2023-04-11T08:45:57.851Z,12.72
2023-04-11T08:46:57.845Z,12.68
2023-04-11T08:47:57.889Z,12.81
2023-04-11T08:48:57.809Z,12.62
2023-04-11T08:49:57.806Z,12.79
2023-04-11T08:50:57.784Z,12.68
2023-04-11T08:51:57.969Z,12.71
2023-04-11T08:52:57.785Z,12.63
2023-04-11T08:53:58.167Z,12.72
2023-04-11T08:54:57.738Z,12.76
2023-04-11T08:55:57.734Z,12.63
2023-04-11T08:56:57.731Z,12.71
2023-04-11T08:57:57.735Z,12.65
2023-04-11T08:58:57.697Z,12.65
2023-04-11T08:59:57.692Z,12.73
2023-04-11T09:00:57.676Z,12.72
2023-04-11T09:01:57.753Z,12.76
2023-04-11T09:02:57.962Z,12.71
2023-04-11T09:03:58.055Z,12.66
2023-04-11T09:04:57.857Z,12.66
2023-04-11T09:05:57.621Z,12.79
2023-04-11T09:07:00.219Z,12.69
2023-04-11T09:07:57.601Z,12.68
2023-04-11T09:08:57.611Z,12.73
2023-04-11T09:09:57.601Z,12.68
2023-04-11T09:10:57.569Z,12.76
2023-04-11T09:11:57.563Z,12.73
2023-04-11T09:12:57.552Z,12.71
2023-04-11T09:13:57.662Z,12.72
2023-04-11T09:14:57.560Z,12.72
2023-04-11T09:15:57.540Z,12.80
2023-04-11T09:16:57.553Z,12.79
2023-04-11T09:18:00.409Z,12.79
2023-04-11T09:18:57.690Z,12.77
2023-04-11T09:19:57.550Z,12.88
2023-04-11T09:20:57.456Z,12.83
2023-04-11T09:21:57.453Z,12.87
2023-04-11T09:22:57.433Z,12.93
2023-04-11T09:23:57.561Z,12.84
2023-04-11T09:24:57.433Z,12.95
2023-04-11T09:25:57.404Z,12.99
2023-04-11T09:26:57.412Z,12.93
2023-04-11T09:27:57.385Z,13.02
2023-04-11T09:28:57.578Z,12.99
2023-04-11T09:29:57.364Z,12.96
2023-04-11T09:30:57.359Z,13.02
2023-04-11T09:31:57.358Z,13.02
2023-04-11T09:32:57.350Z,13.08
2023-04-11T09:33:57.643Z,13.02
2023-04-11T09:34:57.327Z,13.06
2023-04-11T09:35:57.375Z,13.09
2023-04-11T09:36:57.279Z,13.11
2023-04-11T09:37:57.281Z,13.16
2023-04-11T09:38:57.258Z,13.21
2023-04-11T09:39:57.272Z,13.16
2023-04-11T09:40:57.246Z,13.19
2023-04-11T09:41:57.250Z,13.23
2023-04-11T09:42:57.229Z,13.27
2023-04-11T09:43:57.385Z,13.39
2023-04-11T09:44:57.194Z,13.36
2023-04-11T09:45:57.190Z,13.43
2023-04-11T09:46:57.380Z,13.46
2023-04-11T09:47:57.192Z,13.53
2023-04-11T09:48:57.188Z,13.55
2023-04-11T09:49:57.148Z,13.54
2023-04-11T09:50:58.890Z,13.58
2023-04-11T09:51:57.163Z,13.65
2023-04-11T09:52:59.208Z,13.64
2023-04-11T09:53:57.490Z,13.72
2023-04-11T09:54:57.080Z,13.65
2023-04-11T09:55:57.078Z,13.79
2023-04-11T09:56:57.091Z,13.82
2023-04-11T09:57:57.051Z,13.86
2023-04-11T09:58:57.391Z,13.83
2023-04-11T09:59:57.026Z,13.86
2023-04-11T10:00:57.027Z,13.88
2023-04-11T10:01:57.106Z,13.90
2023-04-11T10:02:57.293Z,13.88
2023-04-11T10:03:57.894Z,13.94
2023-04-11T10:04:56.979Z,14.00
2023-04-11T10:05:56.962Z,14.04
2023-04-11T10:06:56.975Z,14.05
2023-04-11T10:07:56.964Z,14.03
2023-04-11T10:08:57.242Z,14.05
2023-04-11T10:09:56.922Z,14.09
2023-04-11T10:10:56.910Z,14.03
2023-04-11T10:11:56.924Z,14.11
2023-04-11T10:12:56.907Z,14.03
2023-04-11T10:13:57.400Z,14.08
2023-04-11T10:14:56.866Z,14.09
2023-04-11T10:15:56.905Z,14.16
2023-04-11T10:16:56.869Z,14.18
2023-04-11T10:17:56.923Z,14.22
2023-04-11T10:18:56.815Z,14.28
2023-04-11T10:19:57.102Z,14.27
2023-04-11T10:20:56.796Z,14.28
2023-04-11T10:21:56.800Z,14.34
2023-04-11T10:22:56.792Z,14.34
2023-04-11T10:23:56.997Z,14.34
2023-04-11T10:24:56.748Z,14.51
2023-04-11T10:25:56.743Z,14.58
2023-04-11T10:26:56.734Z,14.71
2023-04-11T10:27:56.746Z,14.95
2023-04-11T10:28:56.704Z,15.01
2023-04-11T10:29:56.700Z,15.07
2023-04-11T10:30:56.688Z,15.19
2023-04-11T10:31:56.930Z,15.47
2023-04-11T10:32:56.757Z,15.48
2023-04-11T10:33:56.898Z,15.73
2023-04-11T10:34:56.641Z,16.03
2023-04-11T10:35:56.718Z,16.10
2023-04-11T10:36:56.618Z,16.40
2023-04-11T10:37:56.612Z,16.51
2023-04-11T10:38:56.634Z,16.57
2023-04-11T10:39:56.704Z,16.62
2023-04-11T10:40:56.574Z,16.69
2023-04-11T10:41:56.572Z,16.80
2023-04-11T10:42:56.553Z,16.87
2023-04-11T10:43:56.799Z,17.16
2023-04-11T10:44:56.531Z,17.28
2023-04-11T10:45:56.526Z,17.46
2023-04-11T10:46:56.606Z,17.68
2023-04-11T10:47:56.682Z,17.75
2023-04-11T10:48:56.488Z,17.84
2023-04-11T10:49:56.482Z,18.05
2023-04-11T10:50:56.463Z,18.26
2023-04-11T10:51:56.461Z,18.30
2023-04-11T10:52:56.468Z,18.51
2023-04-11T10:53:56.441Z,18.56
2023-04-11T10:54:56.448Z,18.68
2023-04-11T10:55:56.438Z,18.78
2023-04-11T10:56:56.398Z,18.83
2023-04-11T10:57:56.395Z,18.78
2023-04-11T10:58:56.388Z,18.86
2023-04-11T10:59:56.398Z,19.01
2023-04-11T11:00:56.426Z,19.15
2023-04-11T11:01:56.445Z,19.08
2023-04-11T11:02:56.441Z,19.15
2023-04-11T11:03:56.504Z,19.09
2023-04-11T11:04:56.366Z,19.05
2023-04-11T11:05:56.303Z,19.08
2023-04-11T11:06:57.433Z,19.05
2023-04-11T11:07:56.284Z,19.05
2023-04-11T11:08:56.324Z,18.96
2023-04-11T11:09:56.260Z,19.00
2023-04-11T11:10:56.817Z,18.88
2023-04-11T11:11:56.266Z,18.88
2023-04-11T11:12:56.247Z,18.83
2023-04-11T11:13:56.759Z,18.81
2023-04-11T11:14:56.196Z,18.78
2023-04-11T11:15:56.192Z,18.81
2023-04-11T11:16:56.220Z,18.83
2023-04-11T11:17:56.243Z,18.82
2023-04-11T11:18:56.173Z,18.82
2023-04-11T11:19:56.151Z,18.83
2023-04-11T11:20:56.137Z,18.94
2023-04-11T11:21:56.125Z,18.83
2023-04-11T11:22:56.136Z,18.89
2023-04-11T11:23:56.408Z,18.93
2023-04-11T11:24:56.089Z,18.89
2023-04-11T11:25:56.098Z,18.93
2023-04-11T11:26:56.075Z,18.75
2023-04-11T11:27:56.081Z,18.76
2023-04-11T11:28:56.561Z,18.71
2023-04-11T11:29:56.041Z,18.67
2023-04-11T11:30:56.031Z,18.61
2023-04-11T11:31:56.064Z,18.56
2023-04-11T11:32:56.078Z,18.46
2023-04-11T11:34:04.682Z,18.36
2023-04-11T11:34:57.056Z,18.38
2023-04-11T11:35:55.985Z,18.28
2023-04-11T11:36:55.986Z,18.26
2023-04-11T11:37:55.950Z,18.23
2023-04-11T11:38:56.057Z,18.17
2023-04-11T11:39:55.948Z,18.12
2023-04-11T11:40:55.925Z,18.05
2023-04-11T11:41:55.908Z,18.01
2023-04-11T11:42:55.899Z,17.96
2023-04-11T11:43:56.168Z,17.90
2023-04-11T11:44:55.892Z,17.79
2023-04-11T11:45:55.927Z,17.73
2023-04-11T11:46:55.852Z,17.72
2023-04-11T11:47:55.927Z,17.66
2023-04-11T11:48:56.237Z,17.65
2023-04-11T11:49:55.846Z,17.66
2023-04-11T11:50:55.807Z,17.69
2023-04-11T11:51:55.802Z,17.63
2023-04-11T11:52:55.784Z,17.76
2023-04-11T11:53:55.776Z,17.75
2023-04-11T11:54:55.790Z,17.71
2023-04-11T11:55:55.768Z,17.57
2023-04-11T11:56:55.745Z,17.68
2023-04-11T11:57:55.738Z,17.62
2023-04-11T11:58:56.105Z,17.83
2023-04-11T11:59:55.782Z,17.86
2023-04-11T12:00:55.720Z,17.78
2023-04-11T12:01:55.766Z,17.62
2023-04-11T12:02:55.969Z,17.56
2023-04-11T12:03:56.201Z,17.50
2023-04-11T12:04:56.239Z,17.47
2023-04-11T12:05:55.654Z,17.45
2023-04-11T12:06:55.652Z,17.41
2023-04-11T12:07:55.632Z,17.35
2023-04-11T12:08:55.614Z,17.35
2023-04-11T12:09:55.605Z,17.32
2023-04-11T12:10:55.597Z,17.27
2023-04-11T12:11:55.605Z,17.19
2023-04-11T12:12:55.597Z,17.20
2023-04-11T12:13:55.820Z,17.09
2023-04-11T12:14:55.543Z,17.06
2023-04-11T12:15:55.623Z,17.06
2023-04-11T12:16:55.546Z,17.17
2023-04-11T12:17:55.537Z,17.12
2023-04-11T12:18:55.512Z,17.07
2023-04-11T12:19:55.504Z,17.04
2023-04-11T12:20:55.540Z,16.97
2023-04-11T12:21:55.493Z,16.91
2023-04-11T12:22:55.605Z,16.84
2023-04-11T12:23:55.692Z,16.83
2023-04-11T12:24:55.440Z,16.87
2023-04-11T12:25:55.426Z,16.73
2023-04-11T12:27:06.350Z,16.74
2023-04-11T12:27:56.408Z,16.69
2023-04-11T12:28:55.553Z,16.72
2023-04-11T12:29:55.387Z,16.67
2023-04-11T12:30:55.387Z,16.73
2023-04-11T12:31:55.405Z,16.70
2023-04-11T12:32:55.378Z,16.72
2023-04-11T12:33:55.722Z,16.65
2023-04-11T12:34:55.329Z,16.72
2023-04-11T12:35:55.321Z,16.64
2023-04-11T12:36:55.307Z,16.62
2023-04-11T12:37:55.836Z,16.72
2023-04-11T12:38:55.470Z,16.69
2023-04-11T12:39:55.280Z,16.77
2023-04-11T12:41:13.868Z,16.88
2023-04-11T12:41:56.321Z,16.88
2023-04-11T12:42:56.814Z,16.82
2023-04-11T12:43:55.456Z,16.92
2023-04-11T12:44:55.214Z,17.02
2023-04-11T12:45:55.201Z,17.06
2023-04-11T12:46:55.277Z,17.14
2023-04-11T12:47:55.253Z,17.17
2023-04-11T12:48:55.457Z,17.22
2023-04-11T12:49:55.159Z,17.22
2023-04-11T12:50:55.155Z,17.30
2023-04-11T12:51:55.139Z,17.32